sensor_id;sensor_type;location;lat;lon;timestamp;P1;P2;P0
61592;PMS5003;70568;51.378;-1.342;2023-08-06T00:00:02;8;7;
61592;PMS5003;70568;51.378;-1.342;2023-08-06T00:02:30;3;3;
61592;PMS5003;70568;51.378;-1.342;2023-08-06T00:04:57;4;4;
61592;PMS5003;70568;51.378;-1.342;2023-08-06T00:07:24;5;5;
61592;PMS5003;70568;51.378;-1.342;2023-08-06T00:09:50;3;3;
61592;PMS5003;70568;51.378;-1.342;2023-08-06T00:12:17;5;4;
61592;PMS5003;70568;51.378;-1.342;2023-08-06T00:14:44;5;5;
61592;PMS5003;70568;51.378;-1.342;2023-08-06T00:17:11;5;5;
61592;PMS5003;70568;51.378;-1.342;2023-08-06T00:19:37;5;5;
61592;PMS5003;70568;51.378;-1.342;2023-08-06T00:22:04;4;4;
61592;PMS5003;70568;51.378;-1.342;2023-08-06T00:24:31;4;4;
61592;PMS5003;70568;51.378;-1.342;2023-08-06T00:26:57;3;3;
61592;PMS5003;70568;51.378;-1.342;2023-08-06T00:29:24;5;5;
61592;PMS5003;70568;51.378;-1.342;2023-08-06T00:31:50;4;4;
61592;PMS5003;70568;51.378;-1.342;2023-08-06T00:34:17;4;4;
61592;PMS5003;70568;51.378;-1.342;2023-08-06T00:36:43;5;5;
61592;PMS5003;70568;51.378;-1.342;2023-08-06T00:39:10;4;4;
61592;PMS5003;70568;51.378;-1.342;2023-08-06T00:41:36;5;5;
61592;PMS5003;70568;51.378;-1.342;2023-08-06T00:44:03;5;4;
61592;PMS5003;70568;51.378;-1.342;2023-08-06T00:46:30;3;3;
61592;PMS5003;70568;51.378;-1.342;2023-08-06T00:48:58;5;5;
61592;PMS5003;70568;51.378;-1.342;2023-08-06T00:51:25;4;3;
61592;PMS5003;70568;51.378;-1.342;2023-08-06T00:53:53;5;4;
61592;PMS5003;70568;51.378;-1.342;2023-08-06T00:56:21;6;6;
61592;PMS5003;70568;51.378;-1.342;2023-08-06T00:58:48;7;7;
61592;PMS5003;70568;51.378;-1.342;2023-08-06T01:01:15;6;5;
61592;PMS5003;70568;51.378;-1.342;2023-08-06T01:03:41;5;4;
61592;PMS5003;70568;51.378;-1.342;2023-08-06T01:06:09;5;5;
61592;PMS5003;70568;51.378;-1.342;2023-08-06T01:08:39;8;6;
61592;PMS5003;70568;51.378;-1.342;2023-08-06T01:11:21;7;7;
61592;PMS5003;70568;51.378;-1.342;2023-08-06T01:13:58;5;5;
61592;PMS5003;70568;51.378;-1.342;2023-08-06T01:16:28;6;6;
61592;PMS5003;70568;51.378;-1.342;2023-08-06T01:18:57;6;6;
61592;PMS5003;70568;51.378;-1.342;2023-08-06T01:21:24;7;7;
61592;PMS5003;70568;51.378;-1.342;2023-08-06T01:23:50;5;5;
61592;PMS5003;70568;51.378;-1.342;2023-08-06T01:26:19;7;7;
61592;PMS5003;70568;51.378;-1.342;2023-08-06T01:28:52;5;5;
61592;PMS5003;70568;51.378;-1.342;2023-08-06T01:31:24;6;6;
61592;PMS5003;70568;51.378;-1.342;2023-08-06T01:33:54;6;6;
61592;PMS5003;70568;51.378;-1.342;2023-08-06T01:36:24;4;4;
61592;PMS5003;70568;51.378;-1.342;2023-08-06T01:38:52;7;7;
61592;PMS5003;70568;51.378;-1.342;2023-08-06T01:41:20;6;6;
61592;PMS5003;70568;51.378;-1.342;2023-08-06T01:43:47;6;6;
61592;PMS5003;70568;51.378;-1.342;2023-08-06T01:46:14;7;6;
61592;PMS5003;70568;51.378;-1.342;2023-08-06T01:48:41;6;6;
61592;PMS5003;70568;51.378;-1.342;2023-08-06T01:51:08;5;5;
61592;PMS5003;70568;51.378;-1.342;2023-08-06T01:53:34;5;5;
61592;PMS5003;70568;51.378;-1.342;2023-08-06T01:56:01;6;6;
61592;PMS5003;70568;51.378;-1.342;2023-08-06T01:58:28;6;6;
61592;PMS5003;70568;51.378;-1.342;2023-08-06T02:00:54;8;6;
61592;PMS5003;70568;51.378;-1.342;2023-08-06T02:03:21;7;7;
61592;PMS5003;70568;51.378;-1.342;2023-08-06T02:05:48;5;5;
61592;PMS5003;70568;51.378;-1.342;2023-08-06T02:08:14;7;6;
61592;PMS5003;70568;51.378;-1.342;2023-08-06T02:10:41;6;6;
61592;PMS5003;70568;51.378;-1.342;2023-08-06T02:13:07;6;6;
61592;PMS5003;70568;51.378;-1.342;2023-08-06T02:15:34;5;5;
61592;PMS5003;70568;51.378;-1.342;2023-08-06T02:18:00;5;5;
61592;PMS5003;70568;51.378;-1.342;2023-08-06T02:20:27;7;6;
61592;PMS5003;70568;51.378;-1.342;2023-08-06T02:22:53;7;7;
61592;PMS5003;70568;51.378;-1.342;2023-08-06T02:25:20;7;6;
61592;PMS5003;70568;51.378;-1.342;2023-08-06T02:27:47;7;6;
61592;PMS5003;70568;51.378;-1.342;2023-08-06T02:30:13;6;6;
61592;PMS5003;70568;51.378;-1.342;2023-08-06T02:32:40;8;6;
61592;PMS5003;70568;51.378;-1.342;2023-08-06T02:35:07;7;6;
61592;PMS5003;70568;51.378;-1.342;2023-08-06T02:37:34;6;6;
61592;PMS5003;70568;51.378;-1.342;2023-08-06T02:40:00;6;5;
61592;PMS5003;70568;51.378;-1.342;2023-08-06T02:42:27;5;5;
61592;PMS5003;70568;51.378;-1.342;2023-08-06T02:44:54;7;6;
61592;PMS5003;70568;51.378;-1.342;2023-08-06T02:47:21;7;6;
61592;PMS5003;70568;51.378;-1.342;2023-08-06T02:49:48;6;6;
61592;PMS5003;70568;51.378;-1.342;2023-08-06T02:52:14;5;5;
61592;PMS5003;70568;51.378;-1.342;2023-08-06T02:54:41;6;6;
61592;PMS5003;70568;51.378;-1.342;2023-08-06T02:57:07;4;4;
61592;PMS5003;70568;51.378;-1.342;2023-08-06T02:59:34;5;5;
61592;PMS5003;70568;51.378;-1.342;2023-08-06T03:02:00;6;6;
61592;PMS5003;70568;51.378;-1.342;2023-08-06T03:04:26;6;6;
61592;PMS5003;70568;51.378;-1.342;2023-08-06T03:06:53;7;6;
61592;PMS5003;70568;51.378;-1.342;2023-08-06T03:09:20;6;6;
61592;PMS5003;70568;51.378;-1.342;2023-08-06T03:11:47;7;7;
61592;PMS5003;70568;51.378;-1.342;2023-08-06T03:14:13;5;5;
61592;PMS5003;70568;51.378;-1.342;2023-08-06T03:16:40;6;6;
61592;PMS5003;70568;51.378;-1.342;2023-08-06T03:19:06;5;5;
61592;PMS5003;70568;51.378;-1.342;2023-08-06T03:21:33;5;5;
61592;PMS5003;70568;51.378;-1.342;2023-08-06T03:23:59;7;7;
61592;PMS5003;70568;51.378;-1.342;2023-08-06T03:26:26;5;5;
61592;PMS5003;70568;51.378;-1.342;2023-08-06T03:28:52;5;5;
61592;PMS5003;70568;51.378;-1.342;2023-08-06T03:31:21;7;6;
61592;PMS5003;70568;51.378;-1.342;2023-08-06T03:33:48;6;6;
61592;PMS5003;70568;51.378;-1.342;2023-08-06T03:36:14;7;6;
61592;PMS5003;70568;51.378;-1.342;2023-08-06T03:38:41;7;6;
61592;PMS5003;70568;51.378;-1.342;2023-08-06T03:41:07;9;8;
61592;PMS5003;70568;51.378;-1.342;2023-08-06T03:43:34;5;5;
61592;PMS5003;70568;51.378;-1.342;2023-08-06T03:46:00;5;5;
61592;PMS5003;70568;51.378;-1.342;2023-08-06T03:48:27;4;4;
61592;PMS5003;70568;51.378;-1.342;2023-08-06T03:50:53;6;6;
61592;PMS5003;70568;51.378;-1.342;2023-08-06T03:53:20;5;5;
61592;PMS5003;70568;51.378;-1.342;2023-08-06T03:55:47;4;4;
61592;PMS5003;70568;51.378;-1.342;2023-08-06T03:58:13;7;5;
61592;PMS5003;70568;51.378;-1.342;2023-08-06T04:00:40;6;6;
61592;PMS5003;70568;51.378;-1.342;2023-08-06T04:03:07;3;3;
61592;PMS5003;70568;51.378;-1.342;2023-08-06T04:05:33;6;6;
61592;PMS5003;70568;51.378;-1.342;2023-08-06T04:08:00;7;5;
61592;PMS5003;70568;51.378;-1.342;2023-08-06T04:10:26;6;6;
61592;PMS5003;70568;51.378;-1.342;2023-08-06T04:12:53;5;5;
61592;PMS5003;70568;51.378;-1.342;2023-08-06T04:15:20;7;7;
61592;PMS5003;70568;51.378;-1.342;2023-08-06T04:17:47;5;5;
61592;PMS5003;70568;51.378;-1.342;2023-08-06T04:20:13;5;5;
61592;PMS5003;70568;51.378;-1.342;2023-08-06T04:22:40;7;7;
61592;PMS5003;70568;51.378;-1.342;2023-08-06T04:25:06;4;4;
61592;PMS5003;70568;51.378;-1.342;2023-08-06T04:27:34;6;6;
61592;PMS5003;70568;51.378;-1.342;2023-08-06T04:30:01;5;5;
61592;PMS5003;70568;51.378;-1.342;2023-08-06T04:32:27;7;6;
61592;PMS5003;70568;51.378;-1.342;2023-08-06T04:34:55;6;6;
61592;PMS5003;70568;51.378;-1.342;2023-08-06T04:37:22;5;5;
61592;PMS5003;70568;51.378;-1.342;2023-08-06T04:39:49;6;5;
61592;PMS5003;70568;51.378;-1.342;2023-08-06T04:42:15;6;6;
61592;PMS5003;70568;51.378;-1.342;2023-08-06T04:44:42;5;5;
61592;PMS5003;70568;51.378;-1.342;2023-08-06T04:47:08;10;9;
61592;PMS5003;70568;51.378;-1.342;2023-08-06T04:49:35;6;5;
61592;PMS5003;70568;51.378;-1.342;2023-08-06T04:52:02;4;4;
61592;PMS5003;70568;51.378;-1.342;2023-08-06T04:54:30;5;5;
61592;PMS5003;70568;51.378;-1.342;2023-08-06T04:56:56;6;6;
61592;PMS5003;70568;51.378;-1.342;2023-08-06T04:59:23;5;5;
61592;PMS5003;70568;51.378;-1.342;2023-08-06T05:01:50;6;5;
61592;PMS5003;70568;51.378;-1.342;2023-08-06T05:04:17;7;6;
61592;PMS5003;70568;51.378;-1.342;2023-08-06T05:06:44;5;5;
61592;PMS5003;70568;51.378;-1.342;2023-08-06T05:09:10;5;4;
61592;PMS5003;70568;51.378;-1.342;2023-08-06T05:11:37;4;4;
61592;PMS5003;70568;51.378;-1.342;2023-08-06T05:14:03;4;4;
61592;PMS5003;70568;51.378;-1.342;2023-08-06T05:16:30;4;4;
61592;PMS5003;70568;51.378;-1.342;2023-08-06T05:18:57;8;7;
61592;PMS5003;70568;51.378;-1.342;2023-08-06T05:21:23;5;5;
61592;PMS5003;70568;51.378;-1.342;2023-08-06T05:23:50;5;5;
61592;PMS5003;70568;51.378;-1.342;2023-08-06T05:26:18;4;4;
61592;PMS5003;70568;51.378;-1.342;2023-08-06T05:28:45;5;5;
61592;PMS5003;70568;51.378;-1.342;2023-08-06T05:31:12;4;4;
61592;PMS5003;70568;51.378;-1.342;2023-08-06T05:33:39;4;4;
61592;PMS5003;70568;51.378;-1.342;2023-08-06T05:36:05;4;4;
61592;PMS5003;70568;51.378;-1.342;2023-08-06T05:38:32;5;5;
61592;PMS5003;70568;51.378;-1.342;2023-08-06T05:40:58;6;6;
61592;PMS5003;70568;51.378;-1.342;2023-08-06T05:43:25;4;4;
61592;PMS5003;70568;51.378;-1.342;2023-08-06T05:45:51;4;4;
61592;PMS5003;70568;51.378;-1.342;2023-08-06T05:48:19;4;3;
61592;PMS5003;70568;51.378;-1.342;2023-08-06T05:50:46;3;3;
61592;PMS5003;70568;51.378;-1.342;2023-08-06T05:53:12;6;5;
61592;PMS5003;70568;51.378;-1.342;2023-08-06T05:55:39;5;4;
61592;PMS5003;70568;51.378;-1.342;2023-08-06T05:58:06;3;3;
61592;PMS5003;70568;51.378;-1.342;2023-08-06T06:00:32;4;3;
61592;PMS5003;70568;51.378;-1.342;2023-08-06T06:02:59;5;5;
61592;PMS5003;70568;51.378;-1.342;2023-08-06T06:05:25;5;5;
61592;PMS5003;70568;51.378;-1.342;2023-08-06T06:07:52;4;3;
61592;PMS5003;70568;51.378;-1.342;2023-08-06T06:10:18;3;3;
61592;PMS5003;70568;51.378;-1.342;2023-08-06T06:12:46;4;4;
61592;PMS5003;70568;51.378;-1.342;2023-08-06T06:15:13;2;2;
61592;PMS5003;70568;51.378;-1.342;2023-08-06T06:17:39;5;4;
61592;PMS5003;70568;51.378;-1.342;2023-08-06T06:20:06;3;3;
61592;PMS5003;70568;51.378;-1.342;2023-08-06T06:22:34;5;5;
61592;PMS5003;70568;51.378;-1.342;2023-08-06T06:25:00;5;4;
61592;PMS5003;70568;51.378;-1.342;2023-08-06T06:27:27;4;4;
61592;PMS5003;70568;51.378;-1.342;2023-08-06T06:29:53;2;2;
61592;PMS5003;70568;51.378;-1.342;2023-08-06T06:32:22;4;4;
61592;PMS5003;70568;51.378;-1.342;2023-08-06T06:34:50;3;3;
61592;PMS5003;70568;51.378;-1.342;2023-08-06T06:37:18;3;3;
61592;PMS5003;70568;51.378;-1.342;2023-08-06T06:39:45;4;4;
61592;PMS5003;70568;51.378;-1.342;2023-08-06T06:42:11;4;4;
61592;PMS5003;70568;51.378;-1.342;2023-08-06T06:44:38;5;4;
61592;PMS5003;70568;51.378;-1.342;2023-08-06T06:47:04;4;4;
61592;PMS5003;70568;51.378;-1.342;2023-08-06T06:49:31;3;3;
61592;PMS5003;70568;51.378;-1.342;2023-08-06T06:51:58;3;3;
61592;PMS5003;70568;51.378;-1.342;2023-08-06T06:54:24;5;5;
61592;PMS5003;70568;51.378;-1.342;2023-08-06T06:56:51;5;5;
61592;PMS5003;70568;51.378;-1.342;2023-08-06T06:59:17;5;5;
61592;PMS5003;70568;51.378;-1.342;2023-08-06T07:01:45;3;3;
61592;PMS5003;70568;51.378;-1.342;2023-08-06T07:04:11;4;3;
61592;PMS5003;70568;51.378;-1.342;2023-08-06T07:06:37;2;2;
61592;PMS5003;70568;51.378;-1.342;2023-08-06T07:09:04;2;2;
61592;PMS5003;70568;51.378;-1.342;2023-08-06T07:11:30;3;3;
61592;PMS5003;70568;51.378;-1.342;2023-08-06T07:13:58;3;3;
61592;PMS5003;70568;51.378;-1.342;2023-08-06T07:16:25;4;3;
61592;PMS5003;70568;51.378;-1.342;2023-08-06T07:18:53;4;3;
61592;PMS5003;70568;51.378;-1.342;2023-08-06T07:21:20;4;4;
61592;PMS5003;70568;51.378;-1.342;2023-08-06T07:23:48;2;2;
61592;PMS5003;70568;51.378;-1.342;2023-08-06T07:26:15;5;5;
61592;PMS5003;70568;51.378;-1.342;2023-08-06T07:28:42;2;2;
61592;PMS5003;70568;51.378;-1.342;2023-08-06T07:31:09;2;2;
61592;PMS5003;70568;51.378;-1.342;2023-08-06T07:33:35;2;2;
61592;PMS5003;70568;51.378;-1.342;2023-08-06T07:36:07;4;4;
61592;PMS5003;70568;51.378;-1.342;2023-08-06T07:38:35;2;2;
61592;PMS5003;70568;51.378;-1.342;2023-08-06T07:41:02;2;2;
61592;PMS5003;70568;51.378;-1.342;2023-08-06T07:43:29;2;2;
61592;PMS5003;70568;51.378;-1.342;2023-08-06T07:45:57;6;5;
61592;PMS5003;70568;51.378;-1.342;2023-08-06T07:48:24;3;2;
61592;PMS5003;70568;51.378;-1.342;2023-08-06T07:50:51;3;2;
61592;PMS5003;70568;51.378;-1.342;2023-08-06T07:53:19;2;2;
61592;PMS5003;70568;51.378;-1.342;2023-08-06T07:55:49;2;2;
61592;PMS5003;70568;51.378;-1.342;2023-08-06T07:58:16;1;1;
61592;PMS5003;70568;51.378;-1.342;2023-08-06T08:00:43;3;3;
61592;PMS5003;70568;51.378;-1.342;2023-08-06T08:03:09;4;3;
61592;PMS5003;70568;51.378;-1.342;2023-08-06T08:05:36;5;3;
61592;PMS5003;70568;51.378;-1.342;2023-08-06T08:08:04;2;2;
61592;PMS5003;70568;51.378;-1.342;2023-08-06T08:10:31;2;2;
61592;PMS5003;70568;51.378;-1.342;2023-08-06T08:12:58;2;2;
61592;PMS5003;70568;51.378;-1.342;2023-08-06T08:15:24;1;1;
61592;PMS5003;70568;51.378;-1.342;2023-08-06T08:17:52;2;2;
61592;PMS5003;70568;51.378;-1.342;2023-08-06T08:20:20;2;2;
61592;PMS5003;70568;51.378;-1.342;2023-08-06T08:22:47;3;3;
61592;PMS5003;70568;51.378;-1.342;2023-08-06T08:25:15;3;3;
61592;PMS5003;70568;51.378;-1.342;2023-08-06T08:27:42;2;2;
61592;PMS5003;70568;51.378;-1.342;2023-08-06T08:30:09;3;2;
61592;PMS5003;70568;51.378;-1.342;2023-08-06T08:32:36;2;2;
61592;PMS5003;70568;51.378;-1.342;2023-08-06T08:35:03;2;2;
61592;PMS5003;70568;51.378;-1.342;2023-08-06T08:37:30;2;2;
61592;PMS5003;70568;51.378;-1.342;2023-08-06T08:39:56;3;3;
61592;PMS5003;70568;51.378;-1.342;2023-08-06T08:42:23;3;3;
61592;PMS5003;70568;51.378;-1.342;2023-08-06T08:44:50;2;2;
61592;PMS5003;70568;51.378;-1.342;2023-08-06T08:47:19;2;2;
61592;PMS5003;70568;51.378;-1.342;2023-08-06T08:49:46;3;2;
61592;PMS5003;70568;51.378;-1.342;2023-08-06T08:52:15;3;3;
61592;PMS5003;70568;51.378;-1.342;2023-08-06T08:54:44;3;3;
61592;PMS5003;70568;51.378;-1.342;2023-08-06T08:57:12;2;2;
61592;PMS5003;70568;51.378;-1.342;2023-08-06T08:59:38;3;3;
61592;PMS5003;70568;51.378;-1.342;2023-08-06T09:02:05;3;2;
61592;PMS5003;70568;51.378;-1.342;2023-08-06T09:04:34;3;3;
61592;PMS5003;70568;51.378;-1.342;2023-08-06T09:07:01;2;2;
61592;PMS5003;70568;51.378;-1.342;2023-08-06T09:09:30;2;2;
61592;PMS5003;70568;51.378;-1.342;2023-08-06T09:12:00;2;1;
61592;PMS5003;70568;51.378;-1.342;2023-08-06T09:14:28;2;1;
61592;PMS5003;70568;51.378;-1.342;2023-08-06T09:16:56;2;2;
61592;PMS5003;70568;51.378;-1.342;2023-08-06T09:19:23;3;3;
61592;PMS5003;70568;51.378;-1.342;2023-08-06T09:21:50;3;3;
61592;PMS5003;70568;51.378;-1.342;2023-08-06T09:24:17;3;3;
61592;PMS5003;70568;51.378;-1.342;2023-08-06T09:26:45;3;3;
61592;PMS5003;70568;51.378;-1.342;2023-08-06T09:29:11;2;2;
61592;PMS5003;70568;51.378;-1.342;2023-08-06T09:31:40;3;2;
61592;PMS5003;70568;51.378;-1.342;2023-08-06T09:34:10;2;2;
61592;PMS5003;70568;51.378;-1.342;2023-08-06T09:36:39;1;1;
61592;PMS5003;70568;51.378;-1.342;2023-08-06T09:39:12;3;3;
61592;PMS5003;70568;51.378;-1.342;2023-08-06T09:41:40;1;1;
61592;PMS5003;70568;51.378;-1.342;2023-08-06T09:44:13;2;1;
61592;PMS5003;70568;51.378;-1.342;2023-08-06T09:46:42;1;1;
61592;PMS5003;70568;51.378;-1.342;2023-08-06T09:49:08;2;2;
61592;PMS5003;70568;51.378;-1.342;2023-08-06T09:51:36;0;0;
61592;PMS5003;70568;51.378;-1.342;2023-08-06T09:54:04;1;1;
61592;PMS5003;70568;51.378;-1.342;2023-08-06T09:56:32;1;1;
61592;PMS5003;70568;51.378;-1.342;2023-08-06T09:58:59;3;2;
61592;PMS5003;70568;51.378;-1.342;2023-08-06T10:01:27;2;1;
61592;PMS5003;70568;51.378;-1.342;2023-08-06T10:03:53;2;2;
61592;PMS5003;70568;51.378;-1.342;2023-08-06T10:06:21;1;0;
61592;PMS5003;70568;51.378;-1.342;2023-08-06T10:08:50;2;1;
61592;PMS5003;70568;51.378;-1.342;2023-08-06T10:11:17;2;2;
61592;PMS5003;70568;51.378;-1.342;2023-08-06T10:13:43;2;2;
61592;PMS5003;70568;51.378;-1.342;2023-08-06T10:16:10;2;2;
61592;PMS5003;70568;51.378;-1.342;2023-08-06T10:18:38;1;1;
61592;PMS5003;70568;51.378;-1.342;2023-08-06T10:21:07;1;1;
61592;PMS5003;70568;51.378;-1.342;2023-08-06T10:23:35;2;2;
61592;PMS5003;70568;51.378;-1.342;2023-08-06T10:26:02;0;0;
61592;PMS5003;70568;51.378;-1.342;2023-08-06T10:28:33;1;1;
61592;PMS5003;70568;51.378;-1.342;2023-08-06T10:31:00;1;1;
61592;PMS5003;70568;51.378;-1.342;2023-08-06T10:33:27;1;1;
61592;PMS5003;70568;51.378;-1.342;2023-08-06T10:36:06;3;2;
61592;PMS5003;70568;51.378;-1.342;2023-08-06T10:38:36;3;2;
61592;PMS5003;70568;51.378;-1.342;2023-08-06T10:41:15;0;0;
61592;PMS5003;70568;51.378;-1.342;2023-08-06T10:43:43;2;1;
61592;PMS5003;70568;51.378;-1.342;2023-08-06T10:46:09;1;0;
61592;PMS5003;70568;51.378;-1.342;2023-08-06T10:48:38;0;0;
61592;PMS5003;70568;51.378;-1.342;2023-08-06T10:51:06;1;1;
61592;PMS5003;70568;51.378;-1.342;2023-08-06T10:53:34;2;2;
61592;PMS5003;70568;51.378;-1.342;2023-08-06T10:56:02;6;6;
61592;PMS5003;70568;51.378;-1.342;2023-08-06T10:58:38;3;3;
61592;PMS5003;70568;51.378;-1.342;2023-08-06T11:01:04;0;0;
61592;PMS5003;70568;51.378;-1.342;2023-08-06T11:03:31;2;2;
61592;PMS5003;70568;51.378;-1.342;2023-08-06T11:05:59;1;1;
61592;PMS5003;70568;51.378;-1.342;2023-08-06T11:08:27;4;3;
61592;PMS5003;70568;51.378;-1.342;2023-08-06T11:10:55;1;1;
61592;PMS5003;70568;51.378;-1.342;2023-08-06T11:13:33;2;2;
61592;PMS5003;70568;51.378;-1.342;2023-08-06T11:16:00;1;1;
61592;PMS5003;70568;51.378;-1.342;2023-08-06T11:18:28;2;2;
61592;PMS5003;70568;51.378;-1.342;2023-08-06T11:20:54;2;2;
61592;PMS5003;70568;51.378;-1.342;2023-08-06T11:23:21;2;1;
61592;PMS5003;70568;51.378;-1.342;2023-08-06T11:25:48;1;1;
61592;PMS5003;70568;51.378;-1.342;2023-08-06T11:28:14;1;1;
61592;PMS5003;70568;51.378;-1.342;2023-08-06T11:30:41;1;1;
61592;PMS5003;70568;51.378;-1.342;2023-08-06T11:33:08;2;2;
61592;PMS5003;70568;51.378;-1.342;2023-08-06T11:35:34;2;2;
61592;PMS5003;70568;51.378;-1.342;2023-08-06T11:38:02;1;1;
61592;PMS5003;70568;51.378;-1.342;2023-08-06T11:40:29;2;2;
61592;PMS5003;70568;51.378;-1.342;2023-08-06T11:42:57;3;1;
61592;PMS5003;70568;51.378;-1.342;2023-08-06T11:45:24;3;3;
61592;PMS5003;70568;51.378;-1.342;2023-08-06T11:47:52;4;3;
61592;PMS5003;70568;51.378;-1.342;2023-08-06T11:50:22;1;1;
61592;PMS5003;70568;51.378;-1.342;2023-08-06T11:52:52;0;0;
61592;PMS5003;70568;51.378;-1.342;2023-08-06T11:55:22;1;1;
61592;PMS5003;70568;51.378;-1.342;2023-08-06T11:57:50;0;0;
61592;PMS5003;70568;51.378;-1.342;2023-08-06T12:00:17;1;1;
61592;PMS5003;70568;51.378;-1.342;2023-08-06T12:02:45;1;0;
61592;PMS5003;70568;51.378;-1.342;2023-08-06T12:05:13;1;1;
61592;PMS5003;70568;51.378;-1.342;2023-08-06T12:07:42;1;1;
61592;PMS5003;70568;51.378;-1.342;2023-08-06T12:10:11;2;2;
61592;PMS5003;70568;51.378;-1.342;2023-08-06T12:12:38;1;1;
61592;PMS5003;70568;51.378;-1.342;2023-08-06T12:15:06;1;1;
61592;PMS5003;70568;51.378;-1.342;2023-08-06T12:17:34;4;3;
61592;PMS5003;70568;51.378;-1.342;2023-08-06T12:20:01;2;2;
61592;PMS5003;70568;51.378;-1.342;2023-08-06T12:22:28;1;1;
61592;PMS5003;70568;51.378;-1.342;2023-08-06T12:24:54;0;0;
61592;PMS5003;70568;51.378;-1.342;2023-08-06T12:27:21;2;1;
61592;PMS5003;70568;51.378;-1.342;2023-08-06T12:29:48;2;2;
61592;PMS5003;70568;51.378;-1.342;2023-08-06T12:32:15;0;0;
61592;PMS5003;70568;51.378;-1.342;2023-08-06T12:34:42;1;1;
61592;PMS5003;70568;51.378;-1.342;2023-08-06T12:37:09;0;0;
61592;PMS5003;70568;51.378;-1.342;2023-08-06T12:39:36;1;1;
61592;PMS5003;70568;51.378;-1.342;2023-08-06T12:42:04;0;0;
61592;PMS5003;70568;51.378;-1.342;2023-08-06T12:44:32;0;0;
61592;PMS5003;70568;51.378;-1.342;2023-08-06T12:46:59;1;1;
61592;PMS5003;70568;51.378;-1.342;2023-08-06T12:49:25;0;0;
61592;PMS5003;70568;51.378;-1.342;2023-08-06T12:51:53;1;1;
61592;PMS5003;70568;51.378;-1.342;2023-08-06T12:54:20;1;1;
61592;PMS5003;70568;51.378;-1.342;2023-08-06T12:56:49;3;3;
61592;PMS5003;70568;51.378;-1.342;2023-08-06T12:59:16;1;1;
61592;PMS5003;70568;51.378;-1.342;2023-08-06T13:01:44;0;0;
61592;PMS5003;70568;51.378;-1.342;2023-08-06T13:04:12;0;0;
61592;PMS5003;70568;51.378;-1.342;2023-08-06T13:06:39;1;1;
61592;PMS5003;70568;51.378;-1.342;2023-08-06T13:09:06;1;1;
61592;PMS5003;70568;51.378;-1.342;2023-08-06T13:11:33;0;0;
61592;PMS5003;70568;51.378;-1.342;2023-08-06T13:14:03;0;0;
61592;PMS5003;70568;51.378;-1.342;2023-08-06T13:16:32;0;0;
61592;PMS5003;70568;51.378;-1.342;2023-08-06T13:18:58;0;0;
61592;PMS5003;70568;51.378;-1.342;2023-08-06T13:21:32;1;1;
61592;PMS5003;70568;51.378;-1.342;2023-08-06T13:23:59;0;0;
61592;PMS5003;70568;51.378;-1.342;2023-08-06T13:26:27;1;1;
61592;PMS5003;70568;51.378;-1.342;2023-08-06T13:28:54;0;0;
61592;PMS5003;70568;51.378;-1.342;2023-08-06T13:31:21;0;0;
61592;PMS5003;70568;51.378;-1.342;2023-08-06T13:33:48;0;0;
61592;PMS5003;70568;51.378;-1.342;2023-08-06T13:36:14;1;1;
61592;PMS5003;70568;51.378;-1.342;2023-08-06T13:38:41;1;1;
61592;PMS5003;70568;51.378;-1.342;2023-08-06T13:41:08;1;1;
61592;PMS5003;70568;51.378;-1.342;2023-08-06T13:43:35;0;0;
61592;PMS5003;70568;51.378;-1.342;2023-08-06T13:46:01;0;0;
61592;PMS5003;70568;51.378;-1.342;2023-08-06T13:48:28;0;0;
61592;PMS5003;70568;51.378;-1.342;2023-08-06T13:50:54;0;0;
61592;PMS5003;70568;51.378;-1.342;2023-08-06T13:53:21;0;0;
61592;PMS5003;70568;51.378;-1.342;2023-08-06T13:55:48;0;0;
61592;PMS5003;70568;51.378;-1.342;2023-08-06T13:58:14;0;0;
61592;PMS5003;70568;51.378;-1.342;2023-08-06T14:00:40;0;0;
61592;PMS5003;70568;51.378;-1.342;2023-08-06T14:03:08;0;0;
61592;PMS5003;70568;51.378;-1.342;2023-08-06T14:05:35;0;0;
61592;PMS5003;70568;51.378;-1.342;2023-08-06T14:08:02;0;0;
61592;PMS5003;70568;51.378;-1.342;2023-08-06T14:10:29;0;0;
61592;PMS5003;70568;51.378;-1.342;2023-08-06T14:12:56;0;0;
61592;PMS5003;70568;51.378;-1.342;2023-08-06T14:15:23;1;0;
61592;PMS5003;70568;51.378;-1.342;2023-08-06T14:17:49;0;0;
61592;PMS5003;70568;51.378;-1.342;2023-08-06T14:20:15;0;0;
61592;PMS5003;70568;51.378;-1.342;2023-08-06T14:22:43;1;1;
61592;PMS5003;70568;51.378;-1.342;2023-08-06T14:25:10;0;0;
61592;PMS5003;70568;51.378;-1.342;2023-08-06T14:27:36;0;0;
61592;PMS5003;70568;51.378;-1.342;2023-08-06T14:30:03;0;0;
61592;PMS5003;70568;51.378;-1.342;2023-08-06T14:32:31;0;0;
61592;PMS5003;70568;51.378;-1.342;2023-08-06T14:34:58;0;0;
61592;PMS5003;70568;51.378;-1.342;2023-08-06T14:37:25;0;0;
61592;PMS5003;70568;51.378;-1.342;2023-08-06T14:39:51;1;1;
61592;PMS5003;70568;51.378;-1.342;2023-08-06T14:42:18;0;0;
61592;PMS5003;70568;51.378;-1.342;2023-08-06T14:44:46;1;1;
61592;PMS5003;70568;51.378;-1.342;2023-08-06T14:47:12;1;1;
61592;PMS5003;70568;51.378;-1.342;2023-08-06T14:49:39;0;0;
61592;PMS5003;70568;51.378;-1.342;2023-08-06T14:52:06;1;1;
61592;PMS5003;70568;51.378;-1.342;2023-08-06T14:54:33;0;0;
61592;PMS5003;70568;51.378;-1.342;2023-08-06T14:57:00;0;0;
61592;PMS5003;70568;51.378;-1.342;2023-08-06T14:59:26;1;1;
61592;PMS5003;70568;51.378;-1.342;2023-08-06T15:01:53;1;1;
61592;PMS5003;70568;51.378;-1.342;2023-08-06T15:04:20;0;0;
61592;PMS5003;70568;51.378;-1.342;2023-08-06T15:06:48;1;1;
61592;PMS5003;70568;51.378;-1.342;2023-08-06T15:09:14;0;0;
61592;PMS5003;70568;51.378;-1.342;2023-08-06T15:11:41;0;0;
61592;PMS5003;70568;51.378;-1.342;2023-08-06T15:14:08;0;0;
61592;PMS5003;70568;51.378;-1.342;2023-08-06T15:16:35;0;0;
61592;PMS5003;70568;51.378;-1.342;2023-08-06T15:19:01;1;1;
61592;PMS5003;70568;51.378;-1.342;2023-08-06T15:21:28;0;0;
61592;PMS5003;70568;51.378;-1.342;2023-08-06T15:23:54;1;1;
61592;PMS5003;70568;51.378;-1.342;2023-08-06T15:26:21;0;0;
61592;PMS5003;70568;51.378;-1.342;2023-08-06T15:28:48;0;0;
61592;PMS5003;70568;51.378;-1.342;2023-08-06T15:31:14;1;1;
61592;PMS5003;70568;51.378;-1.342;2023-08-06T15:33:40;0;0;
61592;PMS5003;70568;51.378;-1.342;2023-08-06T15:36:07;1;1;
61592;PMS5003;70568;51.378;-1.342;2023-08-06T15:38:33;1;1;
61592;PMS5003;70568;51.378;-1.342;2023-08-06T15:41:00;0;0;
61592;PMS5003;70568;51.378;-1.342;2023-08-06T15:43:27;1;1;
61592;PMS5003;70568;51.378;-1.342;2023-08-06T15:45:54;1;1;
61592;PMS5003;70568;51.378;-1.342;2023-08-06T15:48:22;0;0;
61592;PMS5003;70568;51.378;-1.342;2023-08-06T15:50:50;0;0;
61592;PMS5003;70568;51.378;-1.342;2023-08-06T15:53:16;0;0;
61592;PMS5003;70568;51.378;-1.342;2023-08-06T15:55:42;2;2;
61592;PMS5003;70568;51.378;-1.342;2023-08-06T15:58:09;1;1;
61592;PMS5003;70568;51.378;-1.342;2023-08-06T16:00:35;1;1;
61592;PMS5003;70568;51.378;-1.342;2023-08-06T16:03:02;1;0;
61592;PMS5003;70568;51.378;-1.342;2023-08-06T16:05:29;0;0;
61592;PMS5003;70568;51.378;-1.342;2023-08-06T16:07:56;0;0;
61592;PMS5003;70568;51.378;-1.342;2023-08-06T16:10:22;0;0;
61592;PMS5003;70568;51.378;-1.342;2023-08-06T16:12:49;1;1;
61592;PMS5003;70568;51.378;-1.342;2023-08-06T16:15:15;0;0;
61592;PMS5003;70568;51.378;-1.342;2023-08-06T16:17:42;0;0;
61592;PMS5003;70568;51.378;-1.342;2023-08-06T16:20:09;1;0;
61592;PMS5003;70568;51.378;-1.342;2023-08-06T16:22:37;0;0;
61592;PMS5003;70568;51.378;-1.342;2023-08-06T16:25:04;0;0;
61592;PMS5003;70568;51.378;-1.342;2023-08-06T16:27:31;0;0;
61592;PMS5003;70568;51.378;-1.342;2023-08-06T16:29:57;0;0;
61592;PMS5003;70568;51.378;-1.342;2023-08-06T16:32:24;0;0;